createdAt,value
2019-02-27T00:01:16.733Z,77.82
2019-02-27T00:03:42.789Z,77.99
2019-02-27T00:06:10.077Z,78.50
2019-02-27T00:08:37.381Z,77.84
2019-02-27T00:11:04.641Z,77.71
2019-02-27T00:13:32.487Z,77.86
2019-02-27T00:15:59.765Z,78.38
2019-02-27T00:18:27.002Z,78.84
2019-02-27T00:20:54.311Z,78.60
2019-02-27T00:23:23.906Z,79.11
2019-02-27T00:25:50.742Z,79.27
2019-02-27T00:28:18.041Z,78.54
2019-02-27T00:30:45.311Z,78.64
2019-02-27T00:33:12.640Z,78.54
2019-02-27T00:35:39.961Z,78.92
2019-02-27T00:38:07.220Z,78.74
2019-02-27T00:40:38.431Z,78.31
2019-02-27T00:43:03.760Z,79.13
2019-02-27T00:45:31.029Z,79.49
2019-02-27T00:47:58.713Z,79.26
2019-02-27T00:50:25.958Z,77.81
2019-02-27T00:52:53.252Z,78.25
2019-02-27T00:55:20.541Z,79.31
2019-02-27T00:57:47.830Z,79.51
2019-02-27T01:00:15.656Z,79.78
2019-02-27T01:02:42.902Z,78.99
2019-02-27T01:05:10.399Z,79.84
2019-02-27T01:07:37.741Z,79.97
2019-02-27T01:10:07.220Z,79.55
2019-02-27T01:12:34.485Z,79.92
2019-02-27T01:15:01.736Z,79.53
2019-02-27T01:17:29.025Z,79.61
2019-02-27T01:19:56.325Z,79.38
2019-02-27T01:22:23.625Z,79.46
2019-02-27T01:24:50.903Z,79.38
2019-02-27T01:27:18.221Z,78.60
2019-02-27T01:29:45.493Z,78.07
2019-02-27T01:32:12.776Z,77.80
2019-02-27T01:34:44.238Z,78.13
2019-02-27T01:37:09.313Z,78.52
2019-02-27T01:39:36.553Z,79.13
2019-02-27T01:42:03.862Z,79.22
2019-02-27T01:44:31.256Z,79.47
2019-02-27T01:47:01.820Z,79.73
2019-02-27T01:49:27.742Z,79.99
2019-02-27T01:51:55.046Z,80.33
2019-02-27T01:54:22.503Z,80.13
2019-02-27T01:56:49.892Z,79.81
2019-02-27T01:59:17.812Z,79.75
2019-02-27T02:01:45.304Z,79.56
2019-02-27T02:04:12.755Z,79.88
2019-02-27T02:06:40.189Z,80.13
2019-02-27T02:09:09.917Z,79.49
2019-02-27T02:11:37.375Z,78.98
2019-02-27T02:14:24.101Z,79.02
2019-02-27T02:17:31.578Z,79.48
2019-02-27T02:20:34.485Z,80.05
2019-02-27T02:23:44.981Z,79.71
2019-02-27T02:26:39.254Z,79.55
2019-02-27T02:29:28.472Z,80.17
2019-02-27T02:32:52.060Z,78.97
2019-02-27T02:35:39.533Z,78.91
2019-02-27T02:39:02.373Z,79.23
2019-02-27T02:41:58.419Z,79.55
2019-02-27T02:45:06.074Z,79.57
2019-02-27T02:48:14.968Z,79.91
2019-02-27T02:51:00.211Z,80.40
2019-02-27T02:53:53.052Z,80.70
2019-02-27T02:56:45.536Z,80.93
2019-02-27T02:59:50.721Z,80.94
2019-02-27T03:02:57.575Z,80.86
2019-02-27T03:05:59.758Z,80.30
2019-02-27T03:08:56.334Z,80.44
2019-02-27T03:12:01.965Z,80.16
2019-02-27T03:15:06.094Z,80.66
2019-02-27T03:18:04.675Z,80.04
2019-02-27T03:21:06.281Z,78.93
2019-02-27T03:24:28.262Z,80.37
2019-02-27T03:27:47.481Z,80.93
2019-02-27T03:30:52.640Z,81.38
2019-02-27T04:11:41.375Z,81.09
2019-02-27T04:14:31.860Z,80.33
2019-02-27T04:17:06.912Z,80.01
2019-02-27T04:19:39.244Z,79.17
2019-02-27T04:25:38.977Z,79.93
2019-02-27T04:28:11.681Z,80.41
2019-02-27T04:30:43.864Z,80.39
2019-02-27T04:37:26.457Z,78.97
2019-02-27T04:40:01.258Z,79.92
2019-02-27T04:45:13.152Z,80.28
2019-02-27T04:48:24.096Z,79.94
2019-02-27T04:50:55.233Z,79.92
2019-02-27T04:53:46.500Z,80.05
2019-02-27T04:56:17.920Z,81.25
2019-02-27T04:59:02.613Z,80.96
2019-02-27T05:01:36.472Z,80.27
2019-02-27T05:04:19.474Z,80.32
2019-02-27T05:06:50.732Z,80.49
2019-02-27T05:09:41.511Z,80.58
2019-02-27T05:12:12.971Z,80.83
2019-02-27T05:15:14.714Z,81.24
2019-02-27T05:17:47.233Z,81.83
2019-02-27T05:20:18.031Z,81.84
2019-02-27T05:22:50.171Z,82.09
2019-02-27T05:25:46.154Z,81.65
2019-02-27T05:28:17.296Z,81.44
2019-02-27T05:31:12.312Z,80.17
2019-02-27T05:33:44.493Z,79.46
2019-02-27T05:36:32.368Z,79.71
2019-02-27T05:39:05.077Z,79.85
2019-02-27T05:41:47.076Z,80.06
2019-02-27T05:44:21.216Z,80.72
2019-02-27T05:47:18.733Z,80.74
2019-02-27T05:49:49.837Z,80.85
2019-02-27T05:52:35.733Z,81.30
2019-02-27T05:55:07.117Z,81.61
2019-02-27T05:58:00.213Z,81.50
2019-02-27T06:00:31.780Z,81.32
2019-02-27T06:03:12.578Z,81.59
2019-02-27T06:05:49.395Z,81.58
2019-02-27T06:08:16.175Z,81.43
2019-02-27T06:10:47.351Z,81.64
2019-02-27T06:13:44.965Z,81.43
2019-02-27T06:16:15.277Z,81.63
2019-02-27T06:18:46.294Z,81.45
2019-02-27T06:21:18.117Z,81.60
2019-02-27T06:24:12.499Z,81.96
2019-02-27T06:26:44.409Z,82.13
2019-02-27T06:29:50.529Z,81.90
2019-02-27T06:35:12.510Z,82.69
2019-02-27T06:37:40.041Z,82.59
2019-02-27T06:40:08.755Z,82.20
2019-02-27T06:42:36.394Z,82.18
2019-02-27T06:45:04.559Z,82.20
2019-02-27T06:47:33.032Z,82.49
2019-02-27T06:50:01.468Z,82.67
2019-02-27T06:52:28.912Z,82.50
2019-02-27T06:54:56.415Z,81.87
2019-02-27T06:57:23.910Z,81.82
2019-02-27T06:59:51.358Z,82.41
2019-02-27T07:02:19.110Z,82.29
2019-02-27T07:04:48.202Z,82.14
2019-02-27T07:07:15.707Z,82.29
2019-02-27T07:09:45.819Z,82.56
2019-02-27T07:12:12.595Z,81.93
2019-02-27T07:14:40.078Z,81.44
2019-02-27T07:17:07.513Z,81.49
2019-02-27T07:19:35.076Z,81.22
2019-02-27T07:22:03.069Z,80.74
2019-02-27T07:24:33.050Z,80.93
2019-02-27T07:26:59.878Z,81.44
2019-02-27T07:29:28.054Z,81.45
2019-02-27T07:31:57.226Z,80.90
2019-02-27T07:34:25.504Z,80.42
2019-02-27T07:36:52.995Z,80.33
2019-02-27T07:39:20.471Z,80.36
2019-02-27T07:41:47.964Z,80.55
2019-02-27T07:44:15.446Z,81.00
2019-02-27T07:46:42.934Z,81.07
2019-02-27T07:49:10.410Z,81.23
2019-02-27T07:51:37.847Z,81.50
2019-02-27T07:54:05.315Z,81.42
2019-02-27T07:56:32.789Z,81.68
2019-02-27T07:59:00.225Z,81.22
2019-02-27T08:01:27.668Z,81.68
2019-02-27T08:03:55.140Z,81.79
2019-02-27T08:06:23.621Z,81.53
2019-02-27T08:08:51.335Z,81.21
2019-02-27T08:11:18.848Z,81.34
2019-02-27T08:13:46.295Z,81.64
2019-02-27T08:16:13.781Z,80.81
2019-02-27T08:18:41.226Z,80.46
2019-02-27T08:21:08.759Z,80.45
2019-02-27T08:23:36.214Z,80.94
2019-02-27T08:26:05.136Z,80.50
2019-02-27T08:28:33.167Z,80.96
2019-02-27T08:31:00.699Z,79.95
2019-02-27T08:33:28.210Z,78.99
2019-02-27T08:35:55.711Z,80.37
2019-02-27T08:38:23.696Z,80.50
2019-02-27T08:40:51.436Z,79.77
2019-02-27T08:43:18.960Z,79.64
2019-02-27T08:45:46.403Z,78.51
2019-02-27T08:48:17.149Z,77.73
2019-02-27T08:50:43.211Z,77.30
2019-02-27T08:53:10.667Z,77.68
2019-02-27T08:55:39.262Z,77.60
2019-02-27T08:58:07.451Z,77.58
2019-02-27T09:00:35.016Z,76.67
2019-02-27T09:03:03.598Z,76.50
2019-02-27T09:05:31.590Z,75.45
2019-02-27T09:07:59.050Z,75.07
2019-02-27T09:10:30.380Z,74.88
2019-02-27T09:13:04.865Z,73.42
2019-02-27T09:15:25.255Z,72.54
2019-02-27T09:17:52.729Z,72.13
2019-02-27T09:20:20.879Z,71.63
2019-02-27T09:22:48.385Z,71.18
2019-02-27T09:25:16.252Z,69.83
2019-02-27T09:27:43.690Z,71.19
2019-02-27T09:30:12.651Z,74.03
2019-02-27T09:32:43.277Z,72.53
2019-02-27T09:35:12.501Z,71.96
2019-02-27T09:37:39.987Z,72.43
2019-02-27T09:40:09.559Z,71.79
2019-02-27T09:42:37.012Z,70.67
2019-02-27T09:45:04.613Z,67.72
2019-02-27T09:47:32.047Z,67.12
2019-02-27T09:49:59.488Z,68.00
2019-02-27T09:52:27.794Z,69.89
2019-02-27T09:54:57.329Z,68.65
2019-02-27T09:57:24.787Z,69.99
2019-02-27T09:59:53.672Z,70.28
2019-02-27T10:02:21.592Z,70.48
2019-02-27T10:04:49.057Z,68.51
2019-02-27T10:07:17.091Z,67.37
2019-02-27T10:09:44.780Z,68.93
2019-02-27T10:12:12.211Z,65.91
2019-02-27T10:14:39.703Z,63.72
2019-02-27T10:17:09.143Z,62.91
2019-02-27T10:19:36.498Z,61.67
2019-02-27T10:22:04.048Z,62.49
2019-02-27T10:24:32.307Z,62.46
2019-02-27T10:26:59.831Z,61.99
2019-02-27T10:29:27.333Z,61.38
2019-02-27T10:31:55.417Z,62.83
2019-02-27T10:34:23.072Z,60.35
2019-02-27T10:36:51.019Z,61.59
2019-02-27T10:39:18.748Z,61.71
2019-02-27T10:41:49.720Z,60.86
2019-02-27T10:44:15.704Z,60.30
2019-02-27T10:46:43.269Z,59.98
2019-02-27T10:49:10.796Z,58.93
2019-02-27T10:51:38.400Z,58.39
2019-02-27T10:54:06.136Z,59.68
2019-02-27T10:56:33.641Z,58.25
2019-02-27T10:59:01.378Z,60.59
2019-02-27T11:01:29.113Z,63.33
2019-02-27T11:03:56.642Z,63.36
2019-02-27T11:06:33.746Z,63.11
2019-02-27T11:08:55.916Z,62.77
2019-02-27T11:11:23.837Z,63.12
2019-02-27T11:13:51.771Z,62.84
2019-02-27T11:16:21.433Z,62.94
2019-02-27T11:18:49.570Z,63.02
2019-02-27T11:21:17.042Z,62.54
2019-02-27T11:23:44.472Z,60.71
2019-02-27T11:26:11.887Z,58.16
2019-02-27T11:28:39.325Z,56.14
2019-02-27T11:31:08.432Z,59.44
2019-02-27T11:33:37.290Z,58.56
2019-02-27T11:36:05.661Z,59.31
2019-02-27T11:38:34.003Z,58.96
2019-02-27T11:41:01.529Z,59.16
2019-02-27T11:43:28.976Z,56.99
2019-02-27T11:45:58.016Z,58.09
2019-02-27T11:48:25.829Z,57.08
2019-02-27T11:50:53.383Z,56.99
2019-02-27T11:53:20.846Z,57.06
2019-02-27T11:55:48.333Z,56.74
2019-02-27T11:58:15.879Z,58.46
2019-02-27T12:00:43.374Z,57.60
2019-02-27T12:03:11.317Z,56.07
2019-02-27T12:05:39.681Z,56.63
2019-02-27T12:08:07.200Z,56.36
2019-02-27T12:10:34.674Z,54.91
2019-02-27T12:13:02.108Z,55.60
2019-02-27T12:15:29.629Z,56.12
2019-02-27T12:17:59.725Z,55.17
2019-02-27T12:20:26.541Z,53.30
2019-02-27T12:22:54.010Z,54.11
2019-02-27T12:25:21.479Z,53.78
2019-02-27T12:27:52.590Z,54.71
2019-02-27T12:30:20.350Z,54.69
2019-02-27T12:32:47.858Z,56.20
2019-02-27T12:35:17.852Z,55.77
2019-02-27T12:37:45.362Z,56.85
2019-02-27T12:40:14.850Z,53.67
2019-02-27T12:42:43.153Z,54.29
2019-02-27T12:45:13.949Z,55.99
2019-02-27T12:47:41.424Z,55.24
2019-02-27T12:50:10.727Z,55.50
2019-02-27T12:52:38.211Z,55.34
2019-02-27T12:55:06.010Z,55.77
2019-02-27T12:57:33.511Z,54.30
2019-02-27T13:00:00.971Z,53.61
2019-02-27T13:02:35.438Z,53.30
2019-02-27T13:04:58.050Z,54.13
2019-02-27T13:07:25.508Z,53.69
2019-02-27T13:09:52.980Z,54.09
2019-02-27T13:12:20.429Z,54.23
2019-02-27T13:14:47.937Z,52.94
2019-02-27T13:17:15.571Z,53.37
2019-02-27T13:19:43.009Z,51.55
2019-02-27T13:22:10.588Z,51.34
2019-02-27T13:24:38.071Z,52.93
2019-02-27T13:27:09.015Z,49.29
2019-02-27T13:29:34.940Z,49.78
2019-02-27T13:32:02.403Z,50.05
2019-02-27T13:34:29.911Z,49.48
2019-02-27T13:36:57.385Z,50.59
2019-02-27T13:39:25.685Z,50.18
2019-02-27T13:41:53.752Z,52.37
2019-02-27T13:44:21.232Z,49.70
2019-02-27T13:46:48.731Z,51.01
2019-02-27T13:49:16.243Z,52.25
2019-02-27T13:51:43.752Z,51.94
2019-02-27T13:54:11.235Z,48.07
2019-02-27T13:56:38.732Z,49.73
2019-02-27T13:59:07.434Z,50.61
2019-02-27T14:01:35.865Z,52.28
2019-02-27T14:04:03.350Z,53.51
2019-02-27T14:06:30.829Z,54.10
2019-02-27T14:08:58.272Z,53.75
2019-02-27T14:11:25.865Z,52.93
2019-02-27T14:13:53.329Z,51.85
2019-02-27T14:16:20.785Z,52.61
2019-02-27T14:18:50.043Z,52.58
2019-02-27T14:21:18.188Z,52.84
2019-02-27T14:23:46.820Z,53.85
2019-02-27T14:26:14.650Z,55.01
2019-02-27T14:28:42.129Z,54.35
2019-02-27T14:31:10.058Z,52.85
2019-02-27T14:33:37.636Z,54.28
2019-02-27T14:36:08.200Z,53.63
2019-02-27T14:38:34.532Z,54.47
2019-02-27T14:41:02.015Z,53.47
2019-02-27T14:43:29.482Z,52.93
2019-02-27T14:45:56.951Z,52.72
2019-02-27T14:48:26.248Z,52.75
2019-02-27T14:50:53.710Z,53.86
2019-02-27T14:53:21.169Z,53.59
2019-02-27T14:55:48.654Z,53.59
2019-02-27T14:58:16.142Z,53.80
2019-02-27T15:00:43.824Z,54.38
2019-02-27T15:03:11.465Z,53.87
2019-02-27T15:05:42.881Z,54.19
2019-02-27T15:08:08.548Z,53.08
2019-02-27T15:10:40.243Z,52.16
2019-02-27T15:13:06.056Z,53.24
2019-02-27T15:15:34.165Z,53.19
2019-02-27T15:18:01.993Z,53.51
2019-02-27T15:20:30.118Z,53.00
2019-02-27T15:22:57.568Z,53.35
2019-02-27T15:25:25.051Z,53.18
2019-02-27T15:27:52.541Z,53.37
2019-02-27T15:30:21.916Z,52.64
2019-02-27T15:32:49.441Z,52.01
2019-02-27T15:35:21.040Z,51.13
2019-02-27T15:37:48.215Z,52.11
2019-02-27T15:40:17.710Z,52.93
2019-02-27T15:42:45.573Z,54.01
2019-02-27T15:45:15.344Z,55.15
2019-02-27T15:47:42.881Z,55.27
2019-02-27T15:50:12.228Z,56.22
2019-02-27T15:52:40.626Z,55.76
2019-02-27T15:55:08.642Z,56.05
2019-02-27T15:57:36.179Z,55.06
2019-02-27T16:00:06.395Z,55.89
2019-02-27T16:02:36.839Z,57.28
2019-02-27T16:05:04.580Z,57.19
2019-02-27T16:07:32.216Z,56.35
2019-02-27T16:09:59.716Z,56.83
2019-02-27T16:12:27.230Z,57.29
2019-02-27T16:14:54.962Z,57.13
2019-02-27T16:17:22.740Z,56.58
2019-02-27T16:19:50.520Z,56.54
2019-02-27T16:22:18.236Z,57.48
2019-02-27T16:24:53.446Z,57.54
2019-02-27T16:27:21.017Z,55.25
2019-02-27T16:29:50.977Z,55.34
2019-02-27T16:32:20.429Z,56.60
2019-02-27T16:34:47.974Z,59.35
2019-02-27T16:37:23.842Z,59.70
2019-02-27T16:39:51.578Z,58.49
2019-02-27T16:42:19.164Z,56.21
2019-02-27T16:44:46.946Z,59.36
2019-02-27T16:47:15.518Z,57.55
2019-02-27T16:49:44.143Z,55.58
2019-02-27T16:52:12.038Z,55.94
2019-02-27T16:54:39.806Z,57.36
2019-02-27T16:57:07.730Z,58.32
2019-02-27T16:59:35.499Z,58.33
2019-02-27T17:02:03.916Z,58.17
2019-02-27T17:04:34.075Z,57.78
2019-02-27T17:07:01.784Z,59.16
2019-02-27T17:09:29.749Z,60.43
2019-02-27T17:11:57.630Z,60.13
2019-02-27T17:14:25.674Z,61.29
2019-02-27T17:16:53.694Z,63.35
2019-02-27T17:19:21.768Z,64.10
2019-02-27T17:21:49.930Z,66.44
2019-02-27T17:24:21.837Z,67.84
2019-02-27T17:26:47.873Z,67.38
2019-02-27T17:29:15.674Z,67.29
2019-02-27T17:31:49.434Z,67.89
2019-02-27T17:34:16.030Z,68.55
2019-02-27T17:36:49.402Z,68.08
2019-02-27T17:39:17.374Z,69.48
2019-02-27T17:41:45.432Z,70.04
2019-02-27T17:44:13.418Z,69.54
2019-02-27T17:46:42.730Z,69.70
2019-02-27T17:49:10.473Z,68.33
2019-02-27T17:51:39.567Z,68.09
2019-02-27T17:54:07.718Z,66.72
2019-02-27T17:56:35.766Z,64.92
2019-02-27T17:59:05.218Z,67.70
2019-02-27T18:01:33.592Z,69.47
2019-02-27T18:04:01.677Z,70.74
2019-02-27T18:06:31.222Z,68.85
2019-02-27T18:08:59.812Z,68.75
2019-02-27T18:11:30.687Z,67.45
2019-02-27T18:14:10.085Z,66.31
2019-02-27T18:16:50.007Z,66.17
2019-02-27T18:19:18.065Z,65.27
2019-02-27T18:21:46.118Z,64.18
2019-02-27T18:24:15.773Z,62.83
2019-02-27T18:26:43.833Z,62.63
2019-02-27T18:29:11.875Z,62.25
2019-02-27T18:31:40.125Z,63.00
2019-02-27T18:34:08.201Z,64.35
2019-02-27T18:36:42.824Z,64.59
2019-02-27T18:39:06.790Z,65.66
2019-02-27T18:41:34.962Z,67.70
2019-02-27T18:44:04.780Z,69.48
2019-02-27T18:46:33.019Z,68.48
2019-02-27T18:49:02.514Z,69.92
2019-02-27T18:51:33.186Z,70.75
2019-02-27T18:54:02.280Z,71.48
2019-02-27T18:56:30.405Z,71.40
2019-02-27T18:58:58.476Z,71.83
2019-02-27T19:01:26.785Z,73.02
2019-02-27T19:04:00.349Z,73.14
2019-02-27T19:06:24.846Z,72.39
2019-02-27T19:08:53.272Z,72.25
2019-02-27T19:11:22.407Z,72.35
2019-02-27T19:13:50.598Z,72.25
2019-02-27T19:16:20.723Z,72.87
2019-02-27T19:18:48.745Z,72.91
2019-02-27T19:21:16.811Z,73.15
2019-02-27T19:23:44.926Z,72.75
2019-02-27T19:26:13.217Z,72.52
2019-02-27T19:28:41.356Z,73.15
2019-02-27T19:31:09.558Z,73.30
2019-02-27T19:33:37.606Z,73.42
2019-02-27T19:36:08.144Z,72.88
2019-02-27T19:38:36.266Z,72.65
2019-02-27T19:41:04.794Z,72.94
2019-02-27T19:43:33.370Z,73.04
2019-02-27T19:46:01.385Z,73.75
2019-02-27T19:48:29.669Z,74.24
2019-02-27T19:50:59.570Z,74.74
2019-02-27T19:53:27.635Z,74.79
2019-02-27T19:56:00.703Z,74.63
2019-02-27T19:58:26.424Z,75.21
2019-02-27T20:00:54.976Z,74.88
2019-02-27T20:03:24.069Z,73.80
2019-02-27T20:05:53.281Z,73.76
2019-02-27T20:08:22.414Z,74.00
2019-02-27T20:10:50.779Z,74.13
2019-02-27T20:13:24.651Z,75.08
2019-02-27T20:15:54.796Z,74.45
2019-02-27T20:18:24.006Z,74.97
2019-02-27T20:20:52.343Z,74.34
2019-02-27T20:23:20.418Z,74.05
2019-02-27T20:25:48.652Z,74.39
2019-02-27T20:28:18.747Z,75.27
2019-02-27T20:30:47.078Z,74.70
2019-02-27T20:33:15.447Z,73.87
2019-02-27T20:35:43.563Z,73.74
2019-02-27T20:38:16.153Z,74.11
2019-02-27T20:40:43.035Z,74.49
2019-02-27T20:43:11.075Z,75.63
2019-02-27T20:45:40.071Z,75.53
2019-02-27T20:48:08.447Z,75.44
2019-02-27T20:50:39.015Z,75.89
2019-02-27T20:53:07.870Z,75.47
2019-02-27T20:55:35.914Z,75.62
2019-02-27T20:58:04.634Z,75.54
2019-02-27T21:00:35.907Z,75.39
2019-02-27T21:03:03.257Z,75.81
2019-02-27T21:05:32.430Z,76.33
2019-02-27T21:08:02.078Z,76.53
2019-02-27T21:10:30.507Z,76.02
2019-02-27T21:12:58.594Z,76.08
2019-02-27T21:15:29.337Z,76.89
2019-02-27T21:17:58.632Z,76.46
2019-02-27T21:20:26.964Z,76.83
2019-02-27T21:22:55.052Z,76.51
2019-02-27T21:25:23.074Z,76.83
2019-02-27T21:27:51.294Z,76.74
2019-02-27T21:30:20.016Z,77.30
2019-02-27T21:32:48.178Z,77.49
2019-02-27T21:35:17.910Z,77.43
2019-02-27T21:37:45.905Z,77.51
2019-02-27T21:40:14.568Z,77.72
2019-02-27T21:42:42.683Z,77.20
2019-02-27T21:45:13.308Z,77.27
2019-02-27T21:47:41.339Z,77.12
2019-02-27T21:50:10.767Z,77.08
2019-02-27T21:52:38.834Z,77.15
2019-02-27T21:55:12.673Z,77.47
2019-02-27T21:57:36.686Z,77.01
2019-02-27T22:00:05.534Z,77.48
2019-02-27T22:02:33.014Z,77.80
2019-02-27T22:05:00.666Z,77.74
2019-02-27T22:07:32.933Z,78.01
2019-02-27T22:09:57.571Z,77.85
2019-02-27T22:12:25.185Z,77.52
2019-02-27T22:14:52.670Z,78.12
2019-02-27T22:17:20.164Z,77.71
2019-02-27T22:19:50.419Z,78.30
2019-02-27T22:22:16.991Z,78.69
2019-02-27T22:24:44.610Z,78.55
2019-02-27T22:27:12.750Z,79.31
2019-02-27T22:29:40.951Z,78.35
2019-02-27T22:32:08.440Z,77.80
2019-02-27T22:34:36.010Z,78.52
2019-02-27T22:37:03.659Z,79.40
2019-02-27T22:39:32.637Z,79.33
2019-02-27T22:42:00.235Z,78.47
2019-02-27T22:44:29.240Z,78.49
2019-02-27T22:46:57.267Z,78.71
2019-02-27T22:49:24.720Z,79.22
2019-02-27T22:51:52.275Z,78.89
2019-02-27T22:54:19.818Z,79.08
2019-02-27T22:56:51.387Z,79.27
2019-02-27T22:59:16.987Z,79.26
2019-02-27T23:01:50.747Z,78.88
2019-02-27T23:04:16.942Z,79.55
2019-02-27T23:06:47.283Z,79.69
2019-02-27T23:09:14.430Z,80.11
2019-02-27T23:11:42.601Z,80.05
2019-02-27T23:14:10.310Z,79.73
2019-02-27T23:16:37.867Z,79.43
2019-02-27T23:19:05.324Z,79.29
2019-02-27T23:21:32.779Z,79.64
2019-02-27T23:24:00.350Z,80.04
2019-02-27T23:26:27.935Z,80.14
2019-02-27T23:28:55.430Z,79.93
2019-02-27T23:31:23.672Z,80.23
2019-02-27T23:33:51.284Z,79.58
2019-02-27T23:36:22.002Z,79.61
2019-02-27T23:38:48.250Z,79.31
2019-02-27T23:41:15.686Z,79.55
2019-02-27T23:43:43.309Z,79.47
2019-02-27T23:46:10.770Z,80.28
2019-02-27T23:48:38.350Z,80.51
2019-02-27T23:51:05.846Z,80.92
2019-02-27T23:53:33.331Z,80.43
2019-02-27T23:56:00.765Z,81.17
2019-02-27T23:58:29.503Z,80.67
